sensor_id;sensor_type;location;lat;lon;timestamp;P1;durP1;ratioP1;P2;durP2;ratioP2
10711;SDS011;5407;51.234;6.804;2023-11-19T00:00:45;6.40;;;4.87;;
10711;SDS011;5407;51.234;6.804;2023-11-19T00:03:13;6.83;;;5.10;;
10711;SDS011;5407;51.234;6.804;2023-11-19T00:05:40;6.67;;;4.97;;
10711;SDS011;5407;51.234;6.804;2023-11-19T00:08:08;6.50;;;5.00;;
10711;SDS011;5407;51.234;6.804;2023-11-19T00:10:35;5.53;;;4.47;;
10711;SDS011;5407;51.234;6.804;2023-11-19T00:13:02;8.77;;;4.30;;
10711;SDS011;5407;51.234;6.804;2023-11-19T00:15:29;5.70;;;4.13;;
10711;SDS011;5407;51.234;6.804;2023-11-19T00:17:56;7.57;;;4.10;;
10711;SDS011;5407;51.234;6.804;2023-11-19T00:20:25;4.93;;;4.23;;
10711;SDS011;5407;51.234;6.804;2023-11-19T00:22:52;4.17;;;3.50;;
10711;SDS011;5407;51.234;6.804;2023-11-19T00:25:19;4.53;;;3.53;;
10711;SDS011;5407;51.234;6.804;2023-11-19T00:27:46;3.67;;;3.37;;
10711;SDS011;5407;51.234;6.804;2023-11-19T00:30:14;3.70;;;3.33;;
10711;SDS011;5407;51.234;6.804;2023-11-19T00:32:42;4.73;;;3.70;;
10711;SDS011;5407;51.234;6.804;2023-11-19T00:35:09;5.70;;;3.47;;
10711;SDS011;5407;51.234;6.804;2023-11-19T00:37:37;3.93;;;3.53;;
10711;SDS011;5407;51.234;6.804;2023-11-19T00:40:05;4.67;;;3.30;;
10711;SDS011;5407;51.234;6.804;2023-11-19T00:42:35;4.17;;;3.67;;
10711;SDS011;5407;51.234;6.804;2023-11-19T00:45:04;3.63;;;3.10;;
10711;SDS011;5407;51.234;6.804;2023-11-19T00:47:33;6.40;;;3.13;;
10711;SDS011;5407;51.234;6.804;2023-11-19T00:50:00;5.33;;;3.07;;
10711;SDS011;5407;51.234;6.804;2023-11-19T00:55:24;4.83;;;3.20;;
10711;SDS011;5407;51.234;6.804;2023-11-19T00:57:51;7.23;;;3.50;;
10711;SDS011;5407;51.234;6.804;2023-11-19T01:00:18;5.33;;;3.37;;
10711;SDS011;5407;51.234;6.804;2023-11-19T01:02:46;3.90;;;3.20;;
10711;SDS011;5407;51.234;6.804;2023-11-19T01:05:18;6.10;;;3.40;;
10711;SDS011;5407;51.234;6.804;2023-11-19T01:07:47;4.77;;;2.70;;
10711;SDS011;5407;51.234;6.804;2023-11-19T01:10:17;4.13;;;2.20;;
10711;SDS011;5407;51.234;6.804;2023-11-19T01:12:44;2.57;;;2.20;;
10711;SDS011;5407;51.234;6.804;2023-11-19T01:15:11;4.23;;;2.37;;
10711;SDS011;5407;51.234;6.804;2023-11-19T01:17:41;28.70;;;16.43;;
10711;SDS011;5407;51.234;6.804;2023-11-19T01:20:09;3.47;;;1.97;;
10711;SDS011;5407;51.234;6.804;2023-11-19T01:22:38;2.60;;;1.60;;
10711;SDS011;5407;51.234;6.804;2023-11-19T01:25:06;1.80;;;1.60;;
10711;SDS011;5407;51.234;6.804;2023-11-19T01:27:34;2.27;;;2.00;;
10711;SDS011;5407;51.234;6.804;2023-11-19T01:30:01;2.43;;;1.50;;
10711;SDS011;5407;51.234;6.804;2023-11-19T01:32:29;2.13;;;1.40;;
10711;SDS011;5407;51.234;6.804;2023-11-19T01:34:56;1.53;;;1.30;;
10711;SDS011;5407;51.234;6.804;2023-11-19T01:37:23;2.10;;;1.37;;
10711;SDS011;5407;51.234;6.804;2023-11-19T01:39:50;1.60;;;1.50;;
10711;SDS011;5407;51.234;6.804;2023-11-19T01:42:17;2.90;;;1.40;;
10711;SDS011;5407;51.234;6.804;2023-11-19T01:44:55;1.97;;;1.40;;
10711;SDS011;5407;51.234;6.804;2023-11-19T01:47:25;3.40;;;1.50;;
10711;SDS011;5407;51.234;6.804;2023-11-19T01:49:52;2.20;;;1.40;;
10711;SDS011;5407;51.234;6.804;2023-11-19T01:52:19;3.43;;;1.30;;
10711;SDS011;5407;51.234;6.804;2023-11-19T01:54:50;6.47;;;1.40;;
10711;SDS011;5407;51.234;6.804;2023-11-19T01:57:19;2.03;;;1.13;;
10711;SDS011;5407;51.234;6.804;2023-11-19T01:59:47;3.83;;;1.50;;
10711;SDS011;5407;51.234;6.804;2023-11-19T02:02:17;3.00;;;1.63;;
10711;SDS011;5407;51.234;6.804;2023-11-19T02:04:45;3.33;;;1.50;;
10711;SDS011;5407;51.234;6.804;2023-11-19T02:07:13;5.60;;;1.50;;
10711;SDS011;5407;51.234;6.804;2023-11-19T02:09:42;3.07;;;1.60;;
10711;SDS011;5407;51.234;6.804;2023-11-19T02:12:09;2.57;;;1.60;;
10711;SDS011;5407;51.234;6.804;2023-11-19T02:14:37;3.00;;;1.47;;
10711;SDS011;5407;51.234;6.804;2023-11-19T02:17:04;4.97;;;1.50;;
10711;SDS011;5407;51.234;6.804;2023-11-19T02:19:35;4.83;;;1.80;;
10711;SDS011;5407;51.234;6.804;2023-11-19T02:22:02;4.53;;;1.53;;
10711;SDS011;5407;51.234;6.804;2023-11-19T02:24:30;4.90;;;2.00;;
10711;SDS011;5407;51.234;6.804;2023-11-19T02:27:02;8.60;;;2.10;;
10711;SDS011;5407;51.234;6.804;2023-11-19T02:29:36;5.70;;;2.20;;
10711;SDS011;5407;51.234;6.804;2023-11-19T02:32:03;11.53;;;2.13;;
10711;SDS011;5407;51.234;6.804;2023-11-19T02:34:34;6.03;;;2.27;;
10711;SDS011;5407;51.234;6.804;2023-11-19T02:37:01;11.67;;;2.47;;
10711;SDS011;5407;51.234;6.804;2023-11-19T02:39:28;11.77;;;2.97;;
10711;SDS011;5407;51.234;6.804;2023-11-19T02:41:55;7.27;;;2.50;;
10711;SDS011;5407;51.234;6.804;2023-11-19T02:44:21;6.47;;;2.50;;
10711;SDS011;5407;51.234;6.804;2023-11-19T02:46:50;11.10;;;2.83;;
10711;SDS011;5407;51.234;6.804;2023-11-19T02:49:17;9.37;;;3.00;;
10711;SDS011;5407;51.234;6.804;2023-11-19T02:51:44;6.50;;;2.40;;
10711;SDS011;5407;51.234;6.804;2023-11-19T02:54:10;8.43;;;2.80;;
10711;SDS011;5407;51.234;6.804;2023-11-19T02:56:38;11.87;;;3.10;;
10711;SDS011;5407;51.234;6.804;2023-11-19T02:59:08;16.30;;;3.40;;
10711;SDS011;5407;51.234;6.804;2023-11-19T03:01:43;12.83;;;3.10;;
10711;SDS011;5407;51.234;6.804;2023-11-19T03:04:16;12.63;;;3.17;;
10711;SDS011;5407;51.234;6.804;2023-11-19T03:06:45;12.07;;;3.03;;
10711;SDS011;5407;51.234;6.804;2023-11-19T03:09:12;14.33;;;3.30;;
10711;SDS011;5407;51.234;6.804;2023-11-19T03:11:39;10.73;;;3.40;;
10711;SDS011;5407;51.234;6.804;2023-11-19T03:14:06;12.33;;;3.03;;
10711;SDS011;5407;51.234;6.804;2023-11-19T03:16:32;14.10;;;3.23;;
10711;SDS011;5407;51.234;6.804;2023-11-19T03:18:59;18.30;;;3.33;;
10711;SDS011;5407;51.234;6.804;2023-11-19T03:21:28;12.47;;;3.13;;
10711;SDS011;5407;51.234;6.804;2023-11-19T03:23:56;14.43;;;3.43;;
10711;SDS011;5407;51.234;6.804;2023-11-19T03:26:25;11.60;;;3.57;;
10711;SDS011;5407;51.234;6.804;2023-11-19T03:28:53;12.47;;;3.50;;
10711;SDS011;5407;51.234;6.804;2023-11-19T03:31:21;12.60;;;3.20;;
10711;SDS011;5407;51.234;6.804;2023-11-19T03:33:48;15.87;;;3.50;;
10711;SDS011;5407;51.234;6.804;2023-11-19T03:36:14;12.23;;;3.30;;
10711;SDS011;5407;51.234;6.804;2023-11-19T03:38:42;17.27;;;3.47;;
10711;SDS011;5407;51.234;6.804;2023-11-19T03:41:12;17.57;;;3.43;;
10711;SDS011;5407;51.234;6.804;2023-11-19T03:43:48;15.17;;;3.57;;
10711;SDS011;5407;51.234;6.804;2023-11-19T03:46:18;17.83;;;3.70;;
10711;SDS011;5407;51.234;6.804;2023-11-19T03:48:45;18.93;;;3.90;;
10711;SDS011;5407;51.234;6.804;2023-11-19T03:51:12;12.87;;;3.40;;
10711;SDS011;5407;51.234;6.804;2023-11-19T03:53:42;13.23;;;3.53;;
10711;SDS011;5407;51.234;6.804;2023-11-19T03:56:09;18.40;;;3.90;;
10711;SDS011;5407;51.234;6.804;2023-11-19T03:58:36;18.70;;;3.90;;
10711;SDS011;5407;51.234;6.804;2023-11-19T04:01:04;18.80;;;3.77;;
10711;SDS011;5407;51.234;6.804;2023-11-19T04:03:31;17.07;;;3.77;;
10711;SDS011;5407;51.234;6.804;2023-11-19T04:05:58;16.77;;;3.77;;
10711;SDS011;5407;51.234;6.804;2023-11-19T04:08:25;16.30;;;3.73;;
10711;SDS011;5407;51.234;6.804;2023-11-19T04:10:54;18.80;;;4.00;;
10711;SDS011;5407;51.234;6.804;2023-11-19T04:13:21;18.27;;;3.77;;
10711;SDS011;5407;51.234;6.804;2023-11-19T04:15:49;21.33;;;4.27;;
10711;SDS011;5407;51.234;6.804;2023-11-19T04:18:16;21.07;;;4.33;;
10711;SDS011;5407;51.234;6.804;2023-11-19T04:20:43;19.47;;;3.87;;
10711;SDS011;5407;51.234;6.804;2023-11-19T04:23:10;19.60;;;4.30;;
10711;SDS011;5407;51.234;6.804;2023-11-19T04:25:37;22.53;;;4.10;;
10711;SDS011;5407;51.234;6.804;2023-11-19T04:28:06;24.00;;;4.77;;
10711;SDS011;5407;51.234;6.804;2023-11-19T04:30:33;26.63;;;4.47;;
10711;SDS011;5407;51.234;6.804;2023-11-19T04:33:00;20.90;;;4.43;;
10711;SDS011;5407;51.234;6.804;2023-11-19T04:35:27;25.53;;;4.50;;
10711;SDS011;5407;51.234;6.804;2023-11-19T04:37:54;22.20;;;4.60;;
10711;SDS011;5407;51.234;6.804;2023-11-19T04:40:22;21.43;;;4.13;;
10711;SDS011;5407;51.234;6.804;2023-11-19T04:42:49;21.17;;;4.17;;
10711;SDS011;5407;51.234;6.804;2023-11-19T04:45:18;22.37;;;4.33;;
10711;SDS011;5407;51.234;6.804;2023-11-19T04:47:45;21.63;;;4.37;;
10711;SDS011;5407;51.234;6.804;2023-11-19T04:50:12;20.53;;;4.07;;
10711;SDS011;5407;51.234;6.804;2023-11-19T04:52:39;20.03;;;4.53;;
10711;SDS011;5407;51.234;6.804;2023-11-19T04:55:07;22.17;;;4.33;;
10711;SDS011;5407;51.234;6.804;2023-11-19T04:57:36;21.57;;;4.90;;
10711;SDS011;5407;51.234;6.804;2023-11-19T05:00:04;24.00;;;4.90;;
10711;SDS011;5407;51.234;6.804;2023-11-19T05:02:34;26.60;;;4.63;;
10711;SDS011;5407;51.234;6.804;2023-11-19T05:05:01;26.23;;;4.83;;
10711;SDS011;5407;51.234;6.804;2023-11-19T05:07:29;29.60;;;4.53;;
10711;SDS011;5407;51.234;6.804;2023-11-19T05:09:56;24.03;;;4.73;;
10711;SDS011;5407;51.234;6.804;2023-11-19T05:12:24;22.73;;;4.83;;
10711;SDS011;5407;51.234;6.804;2023-11-19T05:14:52;25.93;;;4.60;;
10711;SDS011;5407;51.234;6.804;2023-11-19T05:17:18;23.23;;;5.00;;
10711;SDS011;5407;51.234;6.804;2023-11-19T05:19:47;28.50;;;4.43;;
10711;SDS011;5407;51.234;6.804;2023-11-19T05:22:14;23.33;;;4.63;;
10711;SDS011;5407;51.234;6.804;2023-11-19T05:24:41;26.17;;;4.70;;
10711;SDS011;5407;51.234;6.804;2023-11-19T05:27:08;30.80;;;5.30;;
10711;SDS011;5407;51.234;6.804;2023-11-19T05:29:36;23.20;;;4.67;;
10711;SDS011;5407;51.234;6.804;2023-11-19T05:32:04;27.13;;;4.93;;
10711;SDS011;5407;51.234;6.804;2023-11-19T05:34:32;23.70;;;5.13;;
10711;SDS011;5407;51.234;6.804;2023-11-19T05:37:00;24.27;;;4.77;;
10711;SDS011;5407;51.234;6.804;2023-11-19T05:39:28;19.70;;;4.50;;
10711;SDS011;5407;51.234;6.804;2023-11-19T05:41:55;21.67;;;4.60;;
10711;SDS011;5407;51.234;6.804;2023-11-19T05:44:22;22.60;;;4.83;;
10711;SDS011;5407;51.234;6.804;2023-11-19T05:46:49;23.27;;;4.70;;
10711;SDS011;5407;51.234;6.804;2023-11-19T05:49:16;20.77;;;4.40;;
10711;SDS011;5407;51.234;6.804;2023-11-19T05:51:43;23.33;;;4.73;;
10711;SDS011;5407;51.234;6.804;2023-11-19T05:54:12;24.60;;;4.93;;
10711;SDS011;5407;51.234;6.804;2023-11-19T05:56:39;24.23;;;5.17;;
10711;SDS011;5407;51.234;6.804;2023-11-19T05:59:07;23.37;;;4.40;;
10711;SDS011;5407;51.234;6.804;2023-11-19T06:01:40;25.33;;;4.77;;
10711;SDS011;5407;51.234;6.804;2023-11-19T06:04:11;21.93;;;4.43;;
10711;SDS011;5407;51.234;6.804;2023-11-19T06:06:38;30.07;;;5.07;;
10711;SDS011;5407;51.234;6.804;2023-11-19T06:09:05;26.10;;;5.70;;
10711;SDS011;5407;51.234;6.804;2023-11-19T06:11:35;26.83;;;5.17;;
10711;SDS011;5407;51.234;6.804;2023-11-19T06:14:02;24.87;;;4.73;;
10711;SDS011;5407;51.234;6.804;2023-11-19T06:16:30;22.30;;;4.47;;
10711;SDS011;5407;51.234;6.804;2023-11-19T06:18:57;24.93;;;4.73;;
10711;SDS011;5407;51.234;6.804;2023-11-19T06:21:26;22.47;;;4.80;;
10711;SDS011;5407;51.234;6.804;2023-11-19T06:23:52;27.23;;;5.00;;
10711;SDS011;5407;51.234;6.804;2023-11-19T06:26:19;21.40;;;4.50;;
10711;SDS011;5407;51.234;6.804;2023-11-19T06:28:49;22.93;;;5.03;;
10711;SDS011;5407;51.234;6.804;2023-11-19T06:31:16;28.10;;;5.13;;
10711;SDS011;5407;51.234;6.804;2023-11-19T06:33:43;23.37;;;4.63;;
10711;SDS011;5407;51.234;6.804;2023-11-19T06:36:10;29.17;;;5.43;;
10711;SDS011;5407;51.234;6.804;2023-11-19T06:38:41;30.77;;;5.40;;
10711;SDS011;5407;51.234;6.804;2023-11-19T06:41:08;26.60;;;5.27;;
10711;SDS011;5407;51.234;6.804;2023-11-19T06:43:36;30.17;;;5.37;;
10711;SDS011;5407;51.234;6.804;2023-11-19T06:46:13;26.67;;;5.07;;
10711;SDS011;5407;51.234;6.804;2023-11-19T06:48:41;24.47;;;5.10;;
10711;SDS011;5407;51.234;6.804;2023-11-19T06:51:09;29.17;;;5.40;;
10711;SDS011;5407;51.234;6.804;2023-11-19T06:53:36;29.73;;;5.53;;
10711;SDS011;5407;51.234;6.804;2023-11-19T06:56:05;26.80;;;5.43;;
10711;SDS011;5407;51.234;6.804;2023-11-19T06:58:43;27.03;;;5.57;;
10711;SDS011;5407;51.234;6.804;2023-11-19T07:01:11;26.30;;;5.00;;
10711;SDS011;5407;51.234;6.804;2023-11-19T07:03:38;19.73;;;4.83;;
10711;SDS011;5407;51.234;6.804;2023-11-19T07:06:05;31.03;;;5.70;;
10711;SDS011;5407;51.234;6.804;2023-11-19T07:08:32;31.83;;;5.13;;
10711;SDS011;5407;51.234;6.804;2023-11-19T07:10:59;26.17;;;5.00;;
10711;SDS011;5407;51.234;6.804;2023-11-19T07:13:26;28.90;;;5.27;;
10711;SDS011;5407;51.234;6.804;2023-11-19T07:15:53;31.17;;;5.60;;
10711;SDS011;5407;51.234;6.804;2023-11-19T07:18:22;27.53;;;5.47;;
10711;SDS011;5407;51.234;6.804;2023-11-19T07:20:49;28.90;;;5.80;;
10711;SDS011;5407;51.234;6.804;2023-11-19T07:23:16;30.13;;;5.77;;
10711;SDS011;5407;51.234;6.804;2023-11-19T07:25:43;26.60;;;5.00;;
10711;SDS011;5407;51.234;6.804;2023-11-19T07:28:12;25.57;;;5.03;;
10711;SDS011;5407;51.234;6.804;2023-11-19T07:30:39;29.70;;;6.23;;
10711;SDS011;5407;51.234;6.804;2023-11-19T07:33:06;30.47;;;5.37;;
10711;SDS011;5407;51.234;6.804;2023-11-19T07:35:35;27.40;;;5.67;;
10711;SDS011;5407;51.234;6.804;2023-11-19T07:38:02;21.80;;;5.00;;
10711;SDS011;5407;51.234;6.804;2023-11-19T07:40:29;37.03;;;6.30;;
10711;SDS011;5407;51.234;6.804;2023-11-19T07:42:56;29.03;;;5.90;;
10711;SDS011;5407;51.234;6.804;2023-11-19T07:45:23;34.67;;;6.20;;
10711;SDS011;5407;51.234;6.804;2023-11-19T07:47:50;33.53;;;5.27;;
10711;SDS011;5407;51.234;6.804;2023-11-19T07:50:16;28.60;;;5.77;;
10711;SDS011;5407;51.234;6.804;2023-11-19T07:52:47;31.07;;;5.90;;
10711;SDS011;5407;51.234;6.804;2023-11-19T07:55:14;30.47;;;6.43;;
10711;SDS011;5407;51.234;6.804;2023-11-19T07:57:41;27.53;;;6.17;;
10711;SDS011;5407;51.234;6.804;2023-11-19T08:00:08;27.50;;;5.73;;
10711;SDS011;5407;51.234;6.804;2023-11-19T08:02:40;30.07;;;5.80;;
10711;SDS011;5407;51.234;6.804;2023-11-19T08:05:07;26.63;;;5.10;;
10711;SDS011;5407;51.234;6.804;2023-11-19T08:07:34;23.83;;;5.27;;
10711;SDS011;5407;51.234;6.804;2023-11-19T08:10:03;25.73;;;5.27;;
10711;SDS011;5407;51.234;6.804;2023-11-19T08:12:35;26.37;;;5.43;;
10711;SDS011;5407;51.234;6.804;2023-11-19T08:15:02;28.30;;;5.20;;
10711;SDS011;5407;51.234;6.804;2023-11-19T08:17:30;31.47;;;5.97;;
10711;SDS011;5407;51.234;6.804;2023-11-19T08:19:57;27.23;;;5.70;;
10711;SDS011;5407;51.234;6.804;2023-11-19T08:22:25;25.73;;;5.60;;
10711;SDS011;5407;51.234;6.804;2023-11-19T08:24:52;27.50;;;4.90;;
10711;SDS011;5407;51.234;6.804;2023-11-19T08:27:20;28.23;;;5.67;;
10711;SDS011;5407;51.234;6.804;2023-11-19T08:29:52;26.03;;;5.70;;
10711;SDS011;5407;51.234;6.804;2023-11-19T08:32:20;31.73;;;5.93;;
10711;SDS011;5407;51.234;6.804;2023-11-19T08:34:47;33.77;;;6.13;;
10711;SDS011;5407;51.234;6.804;2023-11-19T08:37:14;29.83;;;5.67;;
10711;SDS011;5407;51.234;6.804;2023-11-19T08:39:43;23.00;;;5.03;;
10711;SDS011;5407;51.234;6.804;2023-11-19T08:42:10;29.53;;;5.47;;
10711;SDS011;5407;51.234;6.804;2023-11-19T08:44:38;31.03;;;6.00;;
10711;SDS011;5407;51.234;6.804;2023-11-19T08:47:08;22.63;;;5.47;;
10711;SDS011;5407;51.234;6.804;2023-11-19T08:49:35;26.93;;;5.60;;
10711;SDS011;5407;51.234;6.804;2023-11-19T08:52:02;28.03;;;5.50;;
10711;SDS011;5407;51.234;6.804;2023-11-19T08:54:30;25.03;;;5.53;;
10711;SDS011;5407;51.234;6.804;2023-11-19T08:56:58;23.40;;;5.80;;
10711;SDS011;5407;51.234;6.804;2023-11-19T08:59:25;30.17;;;5.50;;
10711;SDS011;5407;51.234;6.804;2023-11-19T09:01:54;29.80;;;5.17;;
10711;SDS011;5407;51.234;6.804;2023-11-19T09:04:20;21.37;;;5.37;;
10711;SDS011;5407;51.234;6.804;2023-11-19T09:06:48;23.80;;;5.27;;
10711;SDS011;5407;51.234;6.804;2023-11-19T09:09:15;29.50;;;5.40;;
10711;SDS011;5407;51.234;6.804;2023-11-19T09:11:42;29.83;;;5.90;;
10711;SDS011;5407;51.234;6.804;2023-11-19T09:14:09;34.27;;;6.03;;
10711;SDS011;5407;51.234;6.804;2023-11-19T09:16:36;26.77;;;5.57;;
10711;SDS011;5407;51.234;6.804;2023-11-19T09:19:04;34.53;;;6.53;;
10711;SDS011;5407;51.234;6.804;2023-11-19T09:21:31;24.87;;;5.83;;
10711;SDS011;5407;51.234;6.804;2023-11-19T09:23:59;28.20;;;5.80;;
10711;SDS011;5407;51.234;6.804;2023-11-19T09:26:26;26.90;;;5.83;;
10711;SDS011;5407;51.234;6.804;2023-11-19T09:28:54;27.07;;;6.20;;
10711;SDS011;5407;51.234;6.804;2023-11-19T09:31:21;26.00;;;5.63;;
10711;SDS011;5407;51.234;6.804;2023-11-19T09:33:48;28.47;;;5.50;;
10711;SDS011;5407;51.234;6.804;2023-11-19T09:36:16;29.93;;;6.13;;
10711;SDS011;5407;51.234;6.804;2023-11-19T09:38:44;29.73;;;5.80;;
10711;SDS011;5407;51.234;6.804;2023-11-19T09:41:12;21.80;;;5.43;;
10711;SDS011;5407;51.234;6.804;2023-11-19T09:43:40;31.00;;;6.13;;
10711;SDS011;5407;51.234;6.804;2023-11-19T09:46:09;26.53;;;5.07;;
10711;SDS011;5407;51.234;6.804;2023-11-19T09:48:37;28.03;;;5.67;;
10711;SDS011;5407;51.234;6.804;2023-11-19T09:51:05;26.57;;;5.83;;
10711;SDS011;5407;51.234;6.804;2023-11-19T09:53:35;27.60;;;5.80;;
10711;SDS011;5407;51.234;6.804;2023-11-19T09:56:02;34.37;;;5.73;;
10711;SDS011;5407;51.234;6.804;2023-11-19T09:58:30;26.60;;;5.27;;
10711;SDS011;5407;51.234;6.804;2023-11-19T10:00:57;28.30;;;6.13;;
10711;SDS011;5407;51.234;6.804;2023-11-19T10:03:25;26.50;;;6.30;;
10711;SDS011;5407;51.234;6.804;2023-11-19T10:05:53;24.17;;;5.27;;
10711;SDS011;5407;51.234;6.804;2023-11-19T10:08:21;24.53;;;5.63;;
10711;SDS011;5407;51.234;6.804;2023-11-19T10:10:50;28.27;;;5.60;;
10711;SDS011;5407;51.234;6.804;2023-11-19T10:13:17;23.60;;;5.27;;
10711;SDS011;5407;51.234;6.804;2023-11-19T10:15:44;24.80;;;5.70;;
10711;SDS011;5407;51.234;6.804;2023-11-19T10:18:13;22.93;;;6.53;;
10711;SDS011;5407;51.234;6.804;2023-11-19T10:20:40;22.43;;;5.43;;
10711;SDS011;5407;51.234;6.804;2023-11-19T10:23:08;30.53;;;5.87;;
10711;SDS011;5407;51.234;6.804;2023-11-19T10:25:35;24.87;;;5.43;;
10711;SDS011;5407;51.234;6.804;2023-11-19T10:28:04;25.63;;;5.73;;
10711;SDS011;5407;51.234;6.804;2023-11-19T10:30:31;24.80;;;5.23;;
10711;SDS011;5407;51.234;6.804;2023-11-19T10:33:06;26.10;;;5.57;;
10711;SDS011;5407;51.234;6.804;2023-11-19T10:35:35;24.50;;;5.93;;
10711;SDS011;5407;51.234;6.804;2023-11-19T10:38:13;24.10;;;5.40;;
10711;SDS011;5407;51.234;6.804;2023-11-19T10:40:41;27.03;;;5.23;;
10711;SDS011;5407;51.234;6.804;2023-11-19T10:43:09;22.83;;;5.30;;
10711;SDS011;5407;51.234;6.804;2023-11-19T10:45:36;24.13;;;5.63;;
10711;SDS011;5407;51.234;6.804;2023-11-19T10:48:02;27.17;;;5.60;;
10711;SDS011;5407;51.234;6.804;2023-11-19T10:50:32;29.63;;;5.20;;
10711;SDS011;5407;51.234;6.804;2023-11-19T10:52:59;22.20;;;5.40;;
10711;SDS011;5407;51.234;6.804;2023-11-19T10:55:27;25.23;;;5.23;;
10711;SDS011;5407;51.234;6.804;2023-11-19T10:57:58;25.17;;;5.50;;
10711;SDS011;5407;51.234;6.804;2023-11-19T11:00:27;31.23;;;5.70;;
10711;SDS011;5407;51.234;6.804;2023-11-19T11:03:00;27.37;;;5.30;;
10711;SDS011;5407;51.234;6.804;2023-11-19T11:05:28;24.93;;;5.37;;
10711;SDS011;5407;51.234;6.804;2023-11-19T11:07:58;26.30;;;5.73;;
10711;SDS011;5407;51.234;6.804;2023-11-19T11:10:27;25.70;;;5.53;;
10711;SDS011;5407;51.234;6.804;2023-11-19T11:12:59;25.17;;;5.27;;
10711;SDS011;5407;51.234;6.804;2023-11-19T11:15:30;30.13;;;5.07;;
10711;SDS011;5407;51.234;6.804;2023-11-19T11:17:59;34.07;;;5.57;;
10711;SDS011;5407;51.234;6.804;2023-11-19T11:20:28;23.67;;;5.43;;
10711;SDS011;5407;51.234;6.804;2023-11-19T11:23:00;22.23;;;5.20;;
10711;SDS011;5407;51.234;6.804;2023-11-19T11:25:50;19.37;;;4.53;;
10711;SDS011;5407;51.234;6.804;2023-11-19T11:28:28;22.33;;;4.87;;
10711;SDS011;5407;51.234;6.804;2023-11-19T11:31:21;18.50;;;4.90;;
10711;SDS011;5407;51.234;6.804;2023-11-19T11:37:15;17.27;;;4.87;;
10711;SDS011;5407;51.234;6.804;2023-11-19T11:39:46;19.40;;;4.87;;
10711;SDS011;5407;51.234;6.804;2023-11-19T11:42:32;22.70;;;5.13;;
10711;SDS011;5407;51.234;6.804;2023-11-19T11:45:00;20.90;;;4.70;;
10711;SDS011;5407;51.234;6.804;2023-11-19T11:50:35;20.60;;;4.73;;
10711;SDS011;5407;51.234;6.804;2023-11-19T11:53:18;18.60;;;4.20;;
10711;SDS011;5407;51.234;6.804;2023-11-19T11:55:52;17.97;;;4.77;;
10711;SDS011;5407;51.234;6.804;2023-11-19T11:58:26;21.37;;;4.63;;
10711;SDS011;5407;51.234;6.804;2023-11-19T12:00:57;14.73;;;4.20;;
10711;SDS011;5407;51.234;6.804;2023-11-19T12:03:26;19.63;;;4.63;;
10711;SDS011;5407;51.234;6.804;2023-11-19T12:05:55;24.03;;;5.47;;
10711;SDS011;5407;51.234;6.804;2023-11-19T12:08:24;22.90;;;4.73;;
10711;SDS011;5407;51.234;6.804;2023-11-19T12:10:53;19.10;;;4.40;;
10711;SDS011;5407;51.234;6.804;2023-11-19T12:13:23;18.07;;;4.53;;
10711;SDS011;5407;51.234;6.804;2023-11-19T12:16:10;20.97;;;4.80;;
10711;SDS011;5407;51.234;6.804;2023-11-19T12:18:40;20.07;;;4.23;;
10711;SDS011;5407;51.234;6.804;2023-11-19T12:21:09;17.17;;;4.70;;
10711;SDS011;5407;51.234;6.804;2023-11-19T12:23:43;23.97;;;4.27;;
10711;SDS011;5407;51.234;6.804;2023-11-19T12:26:21;16.53;;;4.20;;
10711;SDS011;5407;51.234;6.804;2023-11-19T12:28:57;21.50;;;4.63;;
10711;SDS011;5407;51.234;6.804;2023-11-19T12:31:24;17.47;;;4.30;;
10711;SDS011;5407;51.234;6.804;2023-11-19T12:33:51;23.33;;;5.00;;
10711;SDS011;5407;51.234;6.804;2023-11-19T12:36:20;18.83;;;4.30;;
10711;SDS011;5407;51.234;6.804;2023-11-19T12:38:48;20.17;;;4.67;;
10711;SDS011;5407;51.234;6.804;2023-11-19T12:41:16;22.57;;;4.43;;
10711;SDS011;5407;51.234;6.804;2023-11-19T12:43:45;23.77;;;4.70;;
10711;SDS011;5407;51.234;6.804;2023-11-19T12:46:20;20.40;;;4.67;;
10711;SDS011;5407;51.234;6.804;2023-11-19T12:48:47;17.33;;;4.07;;
10711;SDS011;5407;51.234;6.804;2023-11-19T12:51:14;17.30;;;3.77;;
10711;SDS011;5407;51.234;6.804;2023-11-19T12:53:49;15.13;;;3.77;;
10711;SDS011;5407;51.234;6.804;2023-11-19T12:56:19;17.67;;;4.20;;
10711;SDS011;5407;51.234;6.804;2023-11-19T12:58:47;18.50;;;4.07;;
10711;SDS011;5407;51.234;6.804;2023-11-19T13:01:15;16.67;;;3.73;;
10711;SDS011;5407;51.234;6.804;2023-11-19T13:03:44;22.97;;;4.83;;
10711;SDS011;5407;51.234;6.804;2023-11-19T13:06:12;20.13;;;4.80;;
10711;SDS011;5407;51.234;6.804;2023-11-19T13:08:41;21.70;;;4.90;;
10711;SDS011;5407;51.234;6.804;2023-11-19T13:11:11;18.20;;;3.97;;
10711;SDS011;5407;51.234;6.804;2023-11-19T13:13:54;19.10;;;4.43;;
10711;SDS011;5407;51.234;6.804;2023-11-19T13:16:22;19.57;;;4.53;;
10711;SDS011;5407;51.234;6.804;2023-11-19T13:18:49;19.20;;;4.67;;
10711;SDS011;5407;51.234;6.804;2023-11-19T13:21:16;17.83;;;4.40;;
10711;SDS011;5407;51.234;6.804;2023-11-19T13:23:43;16.80;;;4.73;;
10711;SDS011;5407;51.234;6.804;2023-11-19T13:26:12;16.00;;;3.97;;
10711;SDS011;5407;51.234;6.804;2023-11-19T13:28:39;17.97;;;4.10;;
10711;SDS011;5407;51.234;6.804;2023-11-19T13:31:06;16.33;;;4.50;;
10711;SDS011;5407;51.234;6.804;2023-11-19T13:33:33;17.90;;;4.17;;
10711;SDS011;5407;51.234;6.804;2023-11-19T13:36:02;20.30;;;4.30;;
10711;SDS011;5407;51.234;6.804;2023-11-19T13:38:32;18.23;;;4.33;;
10711;SDS011;5407;51.234;6.804;2023-11-19T13:41:00;16.30;;;4.00;;
10711;SDS011;5407;51.234;6.804;2023-11-19T13:43:31;17.33;;;4.33;;
10711;SDS011;5407;51.234;6.804;2023-11-19T13:45:59;17.37;;;4.23;;
10711;SDS011;5407;51.234;6.804;2023-11-19T13:48:26;18.67;;;4.23;;
10711;SDS011;5407;51.234;6.804;2023-11-19T13:50:54;18.77;;;4.50;;
10711;SDS011;5407;51.234;6.804;2023-11-19T13:53:25;17.40;;;3.90;;
10711;SDS011;5407;51.234;6.804;2023-11-19T13:55:52;20.67;;;4.53;;
10711;SDS011;5407;51.234;6.804;2023-11-19T13:58:19;25.00;;;5.50;;
10711;SDS011;5407;51.234;6.804;2023-11-19T14:03:40;19.23;;;5.67;;
10711;SDS011;5407;51.234;6.804;2023-11-19T14:06:07;21.87;;;5.20;;
10711;SDS011;5407;51.234;6.804;2023-11-19T14:08:34;19.73;;;6.83;;
10711;SDS011;5407;51.234;6.804;2023-11-19T14:11:02;18.87;;;4.77;;
10711;SDS011;5407;51.234;6.804;2023-11-19T14:13:30;21.50;;;4.77;;
10711;SDS011;5407;51.234;6.804;2023-11-19T14:15:57;25.63;;;4.97;;
10711;SDS011;5407;51.234;6.804;2023-11-19T14:18:25;20.97;;;5.17;;
10711;SDS011;5407;51.234;6.804;2023-11-19T14:20:52;20.93;;;5.50;;
10711;SDS011;5407;51.234;6.804;2023-11-19T14:23:19;20.53;;;5.00;;
10711;SDS011;5407;51.234;6.804;2023-11-19T14:25:46;21.47;;;4.47;;
10711;SDS011;5407;51.234;6.804;2023-11-19T14:28:13;19.87;;;4.53;;
10711;SDS011;5407;51.234;6.804;2023-11-19T14:30:40;24.50;;;5.27;;
10711;SDS011;5407;51.234;6.804;2023-11-19T14:33:07;20.57;;;4.60;;
10711;SDS011;5407;51.234;6.804;2023-11-19T14:35:35;20.33;;;4.37;;
10711;SDS011;5407;51.234;6.804;2023-11-19T14:38:02;21.97;;;4.90;;
10711;SDS011;5407;51.234;6.804;2023-11-19T14:40:46;21.97;;;4.43;;
10711;SDS011;5407;51.234;6.804;2023-11-19T14:43:14;22.13;;;5.00;;
10711;SDS011;5407;51.234;6.804;2023-11-19T14:45:45;29.43;;;5.27;;
10711;SDS011;5407;51.234;6.804;2023-11-19T14:48:13;24.23;;;5.33;;
10711;SDS011;5407;51.234;6.804;2023-11-19T14:50:42;21.17;;;4.83;;
10711;SDS011;5407;51.234;6.804;2023-11-19T14:53:10;22.03;;;5.33;;
10711;SDS011;5407;51.234;6.804;2023-11-19T14:55:37;24.80;;;5.97;;
10711;SDS011;5407;51.234;6.804;2023-11-19T14:58:04;22.73;;;4.80;;
10711;SDS011;5407;51.234;6.804;2023-11-19T15:00:33;24.73;;;5.30;;
10711;SDS011;5407;51.234;6.804;2023-11-19T15:03:01;26.63;;;5.60;;
10711;SDS011;5407;51.234;6.804;2023-11-19T15:05:49;19.73;;;5.60;;
10711;SDS011;5407;51.234;6.804;2023-11-19T15:08:32;24.43;;;5.23;;
10711;SDS011;5407;51.234;6.804;2023-11-19T15:11:38;26.60;;;5.10;;